Silver Wind — C6FG2 — position and weather

sailwx.info

Track history (hours):
 
Tides and Currents Weather Stations Pressure Air Temp Water Temp Dewpoint Dewpoint Depression Visibility Wind Speed Wind Dir Waves Ship Positions

Silver Wind

Operator: V Ships Leisure

Last reported at 2018-Oct-20 12:27 UTC. Time now 2018-Oct-20 13:08 UTC.
Position N 40°46' W 073°60'.

Length 156 m; draft 5.7 m.

Type: Passenger vessel. MMSI: 308814000.

Date/timePositionNaut miles runAvg speedWind from/ knotsBaromVisibWave heightAir tempDewpointWater temp
2018-Oct-20 12:27N 40°46' W 073°60'0 0.4
2018-Oct-20 12:03N 40°46' W 074°00'0 2.3
2018-Oct-20 11:54N 40°46' W 074°00'2 4.9
2018-Oct-20 11:25N 40°44' W 074°01'513.2
2018-Oct-20 11:03N 40°39' W 074°03'116.3
2018-Oct-20 11:01N 40°38' W 074°03'815.7
2018-Oct-20 10:30N 40°31' W 073°59'12911.7
2018-Oct-19 23:25N 41°25' W 071°24'410.7
2018-Oct-19 23:00N 41°29' W 071°20'3 0.2
2018-Oct-19 10:55N 41°27' W 071°22'59 6.0
2018-Oct-19 01:03N 42°16' W 070°39'117.5
2018-Oct-19 01:00N 42°16' W 070°40'917.1
2018-Oct-19 00:30N 42°22' W 070°48'612.9
2018-Oct-19 00:03N 42°21' W 070°56'115.9
2018-Oct-19 00:00N 42°21' W 070°56'4 6.7
2018-Oct-18 23:26N 42°21' W 071°02'0 0.0
2018-Oct-17 22:09N 42°21' W 071°02'0 3.9
2018-Oct-17 22:03N 42°21' W 071°01'0 4.5
2018-Oct-17 22:00N 42°21' W 071°01'4 6.8
2018-Oct-17 21:29N 42°21' W 070°56'511.5
2018-Oct-17 21:03N 42°25' W 070°52'0 8.3
2018-Oct-17 21:00N 42°25' W 070°52'2 3.6
2018-Oct-17 20:30N 42°24' W 070°50'510.7
2018-Oct-17 20:03N 42°23' W 070°44'116.9
2018-Oct-17 20:01N 42°23' W 070°43'816.8
2018-Oct-17 19:30N 42°22' W 070°32'716.7
2018-Oct-17 19:03N 42°21' W 070°22'117.2
2018-Oct-17 19:00N 42°21' W 070°20'817.0
2018-Oct-17 18:30N 42°20' W 070°09'716.3
2018-Oct-17 18:03N 42°20' W 069°59'116.2
2018-Oct-17 18:00N 42°20' W 069°58'  
2018-Oct-12 13:51N 46°04' W 073°03'513.2
2018-Oct-12 13:30N 46°03' W 073°10'613.9
2018-Oct-12 13:03N 45°57' W 073°13'114.0
2018-Oct-12 13:00N 45°56' W 073°13'713.4
2018-Oct-12 12:30N 45°50' W 073°17'613.9
2018-Oct-12 12:03N 45°45' W 073°23'114.4
2018-Oct-12 12:00N 45°45' W 073°24'  
Track history (hours):
 
Tides and Currents Weather Stations Pressure Air Temp Water Temp Dewpoint Dewpoint Depression Visibility Wind Speed Wind Dir Waves Ship Positions

Silver Wind

Operator: V Ships Leisure

Last reported at 2018-Oct-20 12:27 UTC. Time now 2018-Oct-20 13:08 UTC.
Position N 40°46' W 073°60'.

Length 156 m; draft 5.7 m.

Type: Passenger vessel. MMSI: 308814000.

Date/timePositionNaut miles runAvg speedWind from/ knotsBaromVisibWave heightAir tempDewpointWater temp
2018-Oct-20 12:27N 40°46' W 073°60'0 0.4
2018-Oct-20 12:03N 40°46' W 074°00'0 2.3
2018-Oct-20 11:54N 40°46' W 074°00'2 4.9
2018-Oct-20 11:25N 40°44' W 074°01'513.2
2018-Oct-20 11:03N 40°39' W 074°03'116.3
2018-Oct-20 11:01N 40°38' W 074°03'815.7
2018-Oct-20 10:30N 40°31' W 073°59'12911.7
2018-Oct-19 23:25N 41°25' W 071°24'410.7
2018-Oct-19 23:00N 41°29' W 071°20'3 0.2
2018-Oct-19 10:55N 41°27' W 071°22'59 6.0
2018-Oct-19 01:03N 42°16' W 070°39'117.5
2018-Oct-19 01:00N 42°16' W 070°40'917.1
2018-Oct-19 00:30N 42°22' W 070°48'612.9
2018-Oct-19 00:03N 42°21' W 070°56'115.9
2018-Oct-19 00:00N 42°21' W 070°56'4 6.7
2018-Oct-18 23:26N 42°21' W 071°02'0 0.0
2018-Oct-17 22:09N 42°21' W 071°02'0 3.9
2018-Oct-17 22:03N 42°21' W 071°01'0 4.5
2018-Oct-17 22:00N 42°21' W 071°01'4 6.8
2018-Oct-17 21:29N 42°21' W 070°56'511.5
2018-Oct-17 21:03N 42°25' W 070°52'0 8.3
2018-Oct-17 21:00N 42°25' W 070°52'2 3.6
2018-Oct-17 20:30N 42°24' W 070°50'510.7
2018-Oct-17 20:03N 42°23' W 070°44'116.9
2018-Oct-17 20:01N 42°23' W 070°43'816.8
2018-Oct-17 19:30N 42°22' W 070°32'716.7
2018-Oct-17 19:03N 42°21' W 070°22'117.2
2018-Oct-17 19:00N 42°21' W 070°20'817.0
2018-Oct-17 18:30N 42°20' W 070°09'716.3
2018-Oct-17 18:03N 42°20' W 069°59'116.2
2018-Oct-17 18:00N 42°20' W 069°58'  
2018-Oct-12 13:51N 46°04' W 073°03'513.2
2018-Oct-12 13:30N 46°03' W 073°10'613.9
2018-Oct-12 13:03N 45°57' W 073°13'114.0
2018-Oct-12 13:00N 45°56' W 073°13'713.4
2018-Oct-12 12:30N 45°50' W 073°17'613.9
2018-Oct-12 12:03N 45°45' W 073°23'114.4
2018-Oct-12 12:00N 45°45' W 073°24'  

Dump ship's entire track history